sensor_id;sensor_type;location;lat;lon;timestamp;temperature;humidity
20862;DHT22;10591;52.532;13.348;2022-11-30T00:02:23;4.52;84.43
20862;DHT22;10591;52.532;13.348;2022-11-30T00:04:54;4.46;84.35
20862;DHT22;10591;52.532;13.348;2022-11-30T00:07:27;4.38;84.48
20862;DHT22;10591;52.532;13.348;2022-11-30T00:10:00;4.42;84.47
20862;DHT22;10591;52.532;13.348;2022-11-30T00:12:31;4.42;84.58
20862;DHT22;10591;52.532;13.348;2022-11-30T00:15:01;4.38;84.60
20862;DHT22;10591;52.532;13.348;2022-11-30T00:17:34;4.50;84.56
20862;DHT22;10591;52.532;13.348;2022-11-30T00:20:07;4.46;84.78
20862;DHT22;10591;52.532;13.348;2022-11-30T00:22:40;4.50;84.72
20862;DHT22;10591;52.532;13.348;2022-11-30T00:25:13;4.51;84.36
20862;DHT22;10591;52.532;13.348;2022-11-30T00:27:43;4.51;84.25
20862;DHT22;10591;52.532;13.348;2022-11-30T00:30:14;4.39;84.26
20862;DHT22;10591;52.532;13.348;2022-11-30T00:32:45;4.40;84.45
20862;DHT22;10591;52.532;13.348;2022-11-30T00:35:16;4.42;84.36
20862;DHT22;10591;52.532;13.348;2022-11-30T00:37:49;4.44;84.18
20862;DHT22;10591;52.532;13.348;2022-11-30T00:40:22;4.44;84.23
20862;DHT22;10591;52.532;13.348;2022-11-30T00:42:55;4.36;84.53
20862;DHT22;10591;52.532;13.348;2022-11-30T00:45:29;4.34;84.36
20862;DHT22;10591;52.532;13.348;2022-11-30T00:48:05;4.44;84.39
20862;DHT22;10591;52.532;13.348;2022-11-30T00:50:37;4.38;84.24
20862;DHT22;10591;52.532;13.348;2022-11-30T00:53:09;4.48;84.37
20862;DHT22;10591;52.532;13.348;2022-11-30T00:55:39;4.34;84.20
20862;DHT22;10591;52.532;13.348;2022-11-30T00:58:10;4.34;84.57
20862;DHT22;10591;52.532;13.348;2022-11-30T01:00:41;4.38;84.37
20862;DHT22;10591;52.532;13.348;2022-11-30T01:03:12;4.28;84.42
20862;DHT22;10591;52.532;13.348;2022-11-30T01:05:43;4.36;84.43
20862;DHT22;10591;52.532;13.348;2022-11-30T01:08:14;4.34;84.41
20862;DHT22;10591;52.532;13.348;2022-11-30T01:10:44;4.38;84.30
20862;DHT22;10591;52.532;13.348;2022-11-30T01:13:16;4.46;84.55
20862;DHT22;10591;52.532;13.348;2022-11-30T01:15:47;4.30;84.40
20862;DHT22;10591;52.532;13.348;2022-11-30T01:18:19;4.30;84.35
20862;DHT22;10591;52.532;13.348;2022-11-30T01:20:49;4.22;84.59
20862;DHT22;10591;52.532;13.348;2022-11-30T01:23:20;4.22;84.59
20862;DHT22;10591;52.532;13.348;2022-11-30T01:25:54;4.31;84.47
20862;DHT22;10591;52.532;13.348;2022-11-30T01:28:25;4.22;84.54
20862;DHT22;10591;52.532;13.348;2022-11-30T01:31:04;4.32;84.38
20862;DHT22;10591;52.532;13.348;2022-11-30T01:33:36;4.27;84.41
20862;DHT22;10591;52.532;13.348;2022-11-30T01:36:09;4.18;84.60
20862;DHT22;10591;52.532;13.348;2022-11-30T01:38:49;4.18;84.53
20862;DHT22;10591;52.532;13.348;2022-11-30T01:41:29;4.26;84.52
20862;DHT22;10591;52.532;13.348;2022-11-30T01:49:16;4.25;84.32
20862;DHT22;10591;52.532;13.348;2022-11-30T01:51:56;4.24;84.24
20862;DHT22;10591;52.532;13.348;2022-11-30T01:57:25;4.30;84.31
20862;DHT22;10591;52.532;13.348;2022-11-30T01:59:59;4.44;84.02
20862;DHT22;10591;52.532;13.348;2022-11-30T02:02:39;4.42;83.90
20862;DHT22;10591;52.532;13.348;2022-11-30T02:05:04;4.28;84.10
20862;DHT22;10591;52.532;13.348;2022-11-30T02:07:35;4.21;84.31
20862;DHT22;10591;52.532;13.348;2022-11-30T02:10:14;4.16;84.27
20862;DHT22;10591;52.532;13.348;2022-11-30T02:13:07;4.13;84.38
20862;DHT22;10591;52.532;13.348;2022-11-30T02:30:06;4.23;84.04
20862;DHT22;10591;52.532;13.348;2022-11-30T02:32:58;4.38;83.89
20862;DHT22;10591;52.532;13.348;2022-11-30T02:35:31;4.22;83.95
20862;DHT22;10591;52.532;13.348;2022-11-30T02:38:03;4.13;83.97
20862;DHT22;10591;52.532;13.348;2022-11-30T02:40:35;4.19;83.94
20862;DHT22;10591;52.532;13.348;2022-11-30T02:43:07;4.14;84.16
20862;DHT22;10591;52.532;13.348;2022-11-30T02:45:43;4.16;84.05
20862;DHT22;10591;52.532;13.348;2022-11-30T02:48:13;4.12;84.08
20862;DHT22;10591;52.532;13.348;2022-11-30T02:50:55;4.21;84.22
20862;DHT22;10591;52.532;13.348;2022-11-30T02:53:26;4.04;84.13
20862;DHT22;10591;52.532;13.348;2022-11-30T02:55:59;4.00;84.39
20862;DHT22;10591;52.532;13.348;2022-11-30T02:58:31;4.08;84.32
20862;DHT22;10591;52.532;13.348;2022-11-30T03:01:02;4.00;84.49
20862;DHT22;10591;52.532;13.348;2022-11-30T03:03:33;4.16;84.25
20862;DHT22;10591;52.532;13.348;2022-11-30T03:06:04;4.15;84.16
20862;DHT22;10591;52.532;13.348;2022-11-30T03:08:36;4.06;84.18
20862;DHT22;10591;52.532;13.348;2022-11-30T03:11:07;4.13;83.92
20862;DHT22;10591;52.532;13.348;2022-11-30T03:13:37;4.18;83.75
20862;DHT22;10591;52.532;13.348;2022-11-30T03:16:11;4.14;83.88
20862;DHT22;10591;52.532;13.348;2022-11-30T03:18:42;4.13;83.88
20862;DHT22;10591;52.532;13.348;2022-11-30T03:21:14;4.10;83.87
20862;DHT22;10591;52.532;13.348;2022-11-30T03:23:44;4.14;83.93
20862;DHT22;10591;52.532;13.348;2022-11-30T03:26:15;4.26;83.64
20862;DHT22;10591;52.532;13.348;2022-11-30T03:28:46;4.20;83.76
20862;DHT22;10591;52.532;13.348;2022-11-30T03:31:16;4.13;83.81
20862;DHT22;10591;52.532;13.348;2022-11-30T03:33:47;4.24;83.77
20862;DHT22;10591;52.532;13.348;2022-11-30T03:36:18;4.36;83.82
20862;DHT22;10591;52.532;13.348;2022-11-30T03:38:51;4.26;83.36
20862;DHT22;10591;52.532;13.348;2022-11-30T03:41:22;4.27;83.27
20862;DHT22;10591;52.532;13.348;2022-11-30T03:43:52;4.26;83.36
20862;DHT22;10591;52.532;13.348;2022-11-30T03:46:23;4.27;83.37
20862;DHT22;10591;52.532;13.348;2022-11-30T03:48:55;4.12;83.60
20862;DHT22;10591;52.532;13.348;2022-11-30T03:51:26;3.99;83.82
20862;DHT22;10591;52.532;13.348;2022-11-30T03:53:58;3.98;83.94
20862;DHT22;10591;52.532;13.348;2022-11-30T03:56:29;3.93;84.13
20862;DHT22;10591;52.532;13.348;2022-11-30T03:58:59;4.00;84.08
20862;DHT22;10591;52.532;13.348;2022-11-30T04:01:30;4.04;83.81
20862;DHT22;10591;52.532;13.348;2022-11-30T04:04:03;4.04;83.90
20862;DHT22;10591;52.532;13.348;2022-11-30T04:06:33;3.96;83.93
20862;DHT22;10591;52.532;13.348;2022-11-30T04:09:04;4.02;83.94
20862;DHT22;10591;52.532;13.348;2022-11-30T04:11:34;4.01;84.03
20862;DHT22;10591;52.532;13.348;2022-11-30T04:14:05;4.08;83.91
20862;DHT22;10591;52.532;13.348;2022-11-30T04:16:36;4.06;83.78
20862;DHT22;10591;52.532;13.348;2022-11-30T04:19:06;4.08;83.80
20862;DHT22;10591;52.532;13.348;2022-11-30T04:21:37;4.14;83.74
20862;DHT22;10591;52.532;13.348;2022-11-30T04:24:08;4.14;83.74
20862;DHT22;10591;52.532;13.348;2022-11-30T04:26:39;4.09;83.36
20862;DHT22;10591;52.532;13.348;2022-11-30T04:29:10;4.15;83.73
20862;DHT22;10591;52.532;13.348;2022-11-30T04:31:41;4.21;83.53
20862;DHT22;10591;52.532;13.348;2022-11-30T04:34:13;4.31;83.10
20862;DHT22;10591;52.532;13.348;2022-11-30T04:36:44;4.12;83.22
20862;DHT22;10591;52.532;13.348;2022-11-30T04:39:17;4.08;83.27
20862;DHT22;10591;52.532;13.348;2022-11-30T04:41:47;4.04;83.61
20862;DHT22;10591;52.532;13.348;2022-11-30T04:44:18;4.12;83.42
20862;DHT22;10591;52.532;13.348;2022-11-30T04:46:49;4.13;83.28
20862;DHT22;10591;52.532;13.348;2022-11-30T04:49:20;4.02;83.56
20862;DHT22;10591;52.532;13.348;2022-11-30T04:51:50;4.10;83.51
20862;DHT22;10591;52.532;13.348;2022-11-30T04:54:22;4.03;83.63
20862;DHT22;10591;52.532;13.348;2022-11-30T04:56:53;4.06;83.54
20862;DHT22;10591;52.532;13.348;2022-11-30T04:59:24;4.07;83.36
20862;DHT22;10591;52.532;13.348;2022-11-30T05:01:55;4.06;83.52
20862;DHT22;10591;52.532;13.348;2022-11-30T05:04:26;4.05;83.40
20862;DHT22;10591;52.532;13.348;2022-11-30T05:06:56;4.04;83.49
20862;DHT22;10591;52.532;13.348;2022-11-30T05:09:28;3.94;83.74
20862;DHT22;10591;52.532;13.348;2022-11-30T05:11:59;3.96;83.84
20862;DHT22;10591;52.532;13.348;2022-11-30T05:14:30;3.93;83.99
20862;DHT22;10591;52.532;13.348;2022-11-30T05:17:04;4.00;83.99
20862;DHT22;10591;52.532;13.348;2022-11-30T05:19:34;3.96;83.79
20862;DHT22;10591;52.532;13.348;2022-11-30T05:22:05;3.92;83.93
20862;DHT22;10591;52.532;13.348;2022-11-30T05:24:36;3.96;83.66
20862;DHT22;10591;52.532;13.348;2022-11-30T05:27:06;3.85;83.95
20862;DHT22;10591;52.532;13.348;2022-11-30T05:29:39;3.94;83.85
20862;DHT22;10591;52.532;13.348;2022-11-30T05:32:09;3.94;83.56
20862;DHT22;10591;52.532;13.348;2022-11-30T05:34:40;3.86;83.70
20862;DHT22;10591;52.532;13.348;2022-11-30T05:37:12;3.95;83.88
20862;DHT22;10591;52.532;13.348;2022-11-30T05:39:46;3.96;83.56
20862;DHT22;10591;52.532;13.348;2022-11-30T05:42:16;3.86;83.88
20862;DHT22;10591;52.532;13.348;2022-11-30T05:44:49;3.95;83.86
20862;DHT22;10591;52.532;13.348;2022-11-30T05:47:19;4.00;83.80
20862;DHT22;10591;52.532;13.348;2022-11-30T05:49:53;3.94;83.77
20862;DHT22;10591;52.532;13.348;2022-11-30T05:52:25;3.98;83.64
20862;DHT22;10591;52.532;13.348;2022-11-30T05:54:56;3.94;83.65
20862;DHT22;10591;52.532;13.348;2022-11-30T05:57:29;3.93;83.79
20862;DHT22;10591;52.532;13.348;2022-11-30T06:00:02;3.88;83.55
20862;DHT22;10591;52.532;13.348;2022-11-30T06:02:33;3.97;83.43
20862;DHT22;10591;52.532;13.348;2022-11-30T06:05:09;3.98;83.57
20862;DHT22;10591;52.532;13.348;2022-11-30T06:07:42;4.04;83.60
20862;DHT22;10591;52.532;13.348;2022-11-30T06:10:14;3.99;83.43
20862;DHT22;10591;52.532;13.348;2022-11-30T06:12:46;3.98;83.20
20862;DHT22;10591;52.532;13.348;2022-11-30T06:15:19;4.00;83.24
20862;DHT22;10591;52.532;13.348;2022-11-30T06:17:49;3.90;83.46
20862;DHT22;10591;52.532;13.348;2022-11-30T06:20:22;3.94;83.52
20862;DHT22;10591;52.532;13.348;2022-11-30T06:22:53;3.86;83.31
20862;DHT22;10591;52.532;13.348;2022-11-30T06:25:26;3.88;83.50
20862;DHT22;10591;52.532;13.348;2022-11-30T06:27:57;3.94;83.29
20862;DHT22;10591;52.532;13.348;2022-11-30T06:30:27;3.90;83.32
20862;DHT22;10591;52.532;13.348;2022-11-30T06:32:59;3.90;83.23
20862;DHT22;10591;52.532;13.348;2022-11-30T06:35:32;3.96;83.29
20862;DHT22;10591;52.532;13.348;2022-11-30T06:38:03;3.92;83.46
20862;DHT22;10591;52.532;13.348;2022-11-30T06:40:37;4.02;83.21
20862;DHT22;10591;52.532;13.348;2022-11-30T06:43:08;4.12;83.05
20862;DHT22;10591;52.532;13.348;2022-11-30T06:45:48;4.08;82.99
20862;DHT22;10591;52.532;13.348;2022-11-30T06:48:21;4.08;82.84
20862;DHT22;10591;52.532;13.348;2022-11-30T06:50:53;4.13;82.73
20862;DHT22;10591;52.532;13.348;2022-11-30T06:53:24;4.06;82.81
20862;DHT22;10591;52.532;13.348;2022-11-30T06:55:56;4.06;82.44
20862;DHT22;10591;52.532;13.348;2022-11-30T06:58:27;4.04;82.80
20862;DHT22;10591;52.532;13.348;2022-11-30T07:00:57;4.05;82.80
20862;DHT22;10591;52.532;13.348;2022-11-30T07:03:28;3.99;82.79
20862;DHT22;10591;52.532;13.348;2022-11-30T07:05:59;4.12;82.77
20862;DHT22;10591;52.532;13.348;2022-11-30T07:08:29;4.16;82.93
20862;DHT22;10591;52.532;13.348;2022-11-30T07:11:00;4.13;82.66
20862;DHT22;10591;52.532;13.348;2022-11-30T07:13:31;4.14;82.62
20862;DHT22;10591;52.532;13.348;2022-11-30T07:16:06;4.13;82.55
20862;DHT22;10591;52.532;13.348;2022-11-30T07:18:37;4.09;82.49
20862;DHT22;10591;52.532;13.348;2022-11-30T07:21:09;4.18;82.56
20862;DHT22;10591;52.532;13.348;2022-11-30T07:23:40;4.04;82.59
20862;DHT22;10591;52.532;13.348;2022-11-30T07:26:29;4.12;82.43
20862;DHT22;10591;52.532;13.348;2022-11-30T07:28:59;4.13;82.27
20862;DHT22;10591;52.532;13.348;2022-11-30T07:31:31;4.04;82.30
20862;DHT22;10591;52.532;13.348;2022-11-30T07:34:05;4.10;82.19
20862;DHT22;10591;52.532;13.348;2022-11-30T07:36:36;4.22;82.10
20862;DHT22;10591;52.532;13.348;2022-11-30T07:39:07;4.26;81.99
20862;DHT22;10591;52.532;13.348;2022-11-30T07:41:38;4.14;81.99
20862;DHT22;10591;52.532;13.348;2022-11-30T07:44:09;4.17;81.81
20862;DHT22;10591;52.532;13.348;2022-11-30T07:46:40;4.14;81.94
20862;DHT22;10591;52.532;13.348;2022-11-30T07:49:12;4.19;81.63
20862;DHT22;10591;52.532;13.348;2022-11-30T07:51:43;4.16;81.79
20862;DHT22;10591;52.532;13.348;2022-11-30T07:54:14;4.18;81.58
20862;DHT22;10591;52.532;13.348;2022-11-30T07:56:45;4.15;81.85
20862;DHT22;10591;52.532;13.348;2022-11-30T07:59:16;4.18;81.67
20862;DHT22;10591;52.532;13.348;2022-11-30T08:01:49;4.29;81.60
20862;DHT22;10591;52.532;13.348;2022-11-30T08:04:20;4.22;81.35
20862;DHT22;10591;52.532;13.348;2022-11-30T08:06:52;4.18;81.35
20862;DHT22;10591;52.532;13.348;2022-11-30T08:09:24;4.22;81.61
20862;DHT22;10591;52.532;13.348;2022-11-30T08:11:55;4.16;81.62
20862;DHT22;10591;52.532;13.348;2022-11-30T08:14:26;4.12;81.82
20862;DHT22;10591;52.532;13.348;2022-11-30T08:17:02;4.28;81.57
20862;DHT22;10591;52.532;13.348;2022-11-30T08:19:29;4.28;81.60
20862;DHT22;10591;52.532;13.348;2022-11-30T08:22:01;4.18;81.42
20862;DHT22;10591;52.532;13.348;2022-11-30T08:24:32;4.34;81.21
20862;DHT22;10591;52.532;13.348;2022-11-30T08:27:03;4.40;81.09
20862;DHT22;10591;52.532;13.348;2022-11-30T08:29:36;4.44;80.89
20862;DHT22;10591;52.532;13.348;2022-11-30T08:32:07;4.34;81.03
20862;DHT22;10591;52.532;13.348;2022-11-30T08:34:38;4.30;80.76
20862;DHT22;10591;52.532;13.348;2022-11-30T08:37:08;4.22;81.26
20862;DHT22;10591;52.532;13.348;2022-11-30T08:39:42;4.36;81.05
20862;DHT22;10591;52.532;13.348;2022-11-30T08:42:12;4.38;81.11
20862;DHT22;10591;52.532;13.348;2022-11-30T08:44:43;4.28;81.07
20862;DHT22;10591;52.532;13.348;2022-11-30T08:47:14;4.20;80.88
20862;DHT22;10591;52.532;13.348;2022-11-30T08:49:45;4.30;80.95
20862;DHT22;10591;52.532;13.348;2022-11-30T08:52:17;4.52;80.48
20862;DHT22;10591;52.532;13.348;2022-11-30T08:54:49;4.46;80.42
20862;DHT22;10591;52.532;13.348;2022-11-30T08:57:22;4.40;80.50
20862;DHT22;10591;52.532;13.348;2022-11-30T08:59:53;4.36;80.58
20862;DHT22;10591;52.532;13.348;2022-11-30T09:02:23;4.44;80.51
20862;DHT22;10591;52.532;13.348;2022-11-30T09:04:54;4.58;80.09
20862;DHT22;10591;52.532;13.348;2022-11-30T09:07:24;4.59;80.06
20862;DHT22;10591;52.532;13.348;2022-11-30T09:09:57;4.66;79.99
20862;DHT22;10591;52.532;13.348;2022-11-30T09:12:29;4.74;79.60
20862;DHT22;10591;52.532;13.348;2022-11-30T09:15:00;4.68;79.25
20862;DHT22;10591;52.532;13.348;2022-11-30T09:17:32;4.72;79.16
20862;DHT22;10591;52.532;13.348;2022-11-30T09:20:06;4.64;78.91
20862;DHT22;10591;52.532;13.348;2022-11-30T09:22:37;4.78;78.96
20862;DHT22;10591;52.532;13.348;2022-11-30T09:25:09;5.00;78.47
20862;DHT22;10591;52.532;13.348;2022-11-30T09:27:41;4.87;78.28
20862;DHT22;10591;52.532;13.348;2022-11-30T09:30:12;4.91;78.12
20862;DHT22;10591;52.532;13.348;2022-11-30T09:32:46;4.97;77.96
20862;DHT22;10591;52.532;13.348;2022-11-30T09:35:16;4.91;78.02
20862;DHT22;10591;52.532;13.348;2022-11-30T09:37:47;5.00;77.70
20862;DHT22;10591;52.532;13.348;2022-11-30T09:40:20;4.85;77.67
20862;DHT22;10591;52.532;13.348;2022-11-30T09:45:56;5.08;77.74
20862;DHT22;10591;52.532;13.348;2022-11-30T09:51:10;4.87;77.69
20862;DHT22;10591;52.532;13.348;2022-11-30T09:53:50;4.77;77.99
20862;DHT22;10591;52.532;13.348;2022-11-30T09:56:29;5.02;77.91
20862;DHT22;10591;52.532;13.348;2022-11-30T09:59:17;5.03;77.60
20862;DHT22;10591;52.532;13.348;2022-11-30T10:01:50;5.06;77.71
20862;DHT22;10591;52.532;13.348;2022-11-30T10:04:23;5.23;77.41
20862;DHT22;10591;52.532;13.348;2022-11-30T10:07:01;5.22;77.19
20862;DHT22;10591;52.532;13.348;2022-11-30T10:09:43;5.18;77.40
20862;DHT22;10591;52.532;13.348;2022-11-30T10:12:24;5.17;77.15
20862;DHT22;10591;52.532;13.348;2022-11-30T10:14:57;5.04;77.55
20862;DHT22;10591;52.532;13.348;2022-11-30T10:23:34;5.17;77.42
20862;DHT22;10591;52.532;13.348;2022-11-30T10:26:15;5.22;77.21
20862;DHT22;10591;52.532;13.348;2022-11-30T10:28:53;5.22;77.04
20862;DHT22;10591;52.532;13.348;2022-11-30T10:31:28;5.30;76.83
20862;DHT22;10591;52.532;13.348;2022-11-30T10:34:02;5.24;76.72
20862;DHT22;10591;52.532;13.348;2022-11-30T10:39:19;5.11;77.48
20862;DHT22;10591;52.532;13.348;2022-11-30T10:42:03;5.05;77.49
20862;DHT22;10591;52.532;13.348;2022-11-30T10:44:32;5.07;77.35
20862;DHT22;10591;52.532;13.348;2022-11-30T10:47:22;5.04;77.36
20862;DHT22;10591;52.532;13.348;2022-11-30T10:49:53;5.16;77.32
20862;DHT22;10591;52.532;13.348;2022-11-30T10:52:37;5.26;77.26
20862;DHT22;10591;52.532;13.348;2022-11-30T10:55:35;5.36;76.92
20862;DHT22;10591;52.532;13.348;2022-11-30T10:58:28;5.36;76.84
20862;DHT22;10591;52.532;13.348;2022-11-30T11:01:04;5.29;76.83
20862;DHT22;10591;52.532;13.348;2022-11-30T11:03:37;5.41;76.41
20862;DHT22;10591;52.532;13.348;2022-11-30T11:06:22;5.53;76.18
20862;DHT22;10591;52.532;13.348;2022-11-30T11:08:57;5.60;76.40
20862;DHT22;10591;52.532;13.348;2022-11-30T11:11:38;5.66;75.90
20862;DHT22;10591;52.532;13.348;2022-11-30T11:14:15;5.68;75.53
20862;DHT22;10591;52.532;13.348;2022-11-30T11:17:03;5.72;75.43
20862;DHT22;10591;52.532;13.348;2022-11-30T11:19:41;5.53;75.89
20862;DHT22;10591;52.532;13.348;2022-11-30T11:22:18;5.42;76.19
20862;DHT22;10591;52.532;13.348;2022-11-30T11:24:53;5.41;76.24
20862;DHT22;10591;52.532;13.348;2022-11-30T11:27:29;5.45;76.42
20862;DHT22;10591;52.532;13.348;2022-11-30T11:30:27;5.43;76.39
20862;DHT22;10591;52.532;13.348;2022-11-30T11:35:46;5.56;75.97
20862;DHT22;10591;52.532;13.348;2022-11-30T11:38:31;5.60;75.70
20862;DHT22;10591;52.532;13.348;2022-11-30T11:41:12;5.62;75.61
20862;DHT22;10591;52.532;13.348;2022-11-30T11:47:00;5.63;75.54
20862;DHT22;10591;52.532;13.348;2022-11-30T11:49:37;5.50;75.53
20862;DHT22;10591;52.532;13.348;2022-11-30T11:54:49;5.74;75.04
20862;DHT22;10591;52.532;13.348;2022-11-30T11:57:24;5.76;74.89
20862;DHT22;10591;52.532;13.348;2022-11-30T12:00:06;5.70;75.08
20862;DHT22;10591;52.532;13.348;2022-11-30T12:02:52;5.78;75.15
20862;DHT22;10591;52.532;13.348;2022-11-30T12:05:27;5.56;76.14
20862;DHT22;10591;52.532;13.348;2022-11-30T12:08:24;5.51;76.06
20862;DHT22;10591;52.532;13.348;2022-11-30T12:10:58;5.55;76.31
20862;DHT22;10591;52.532;13.348;2022-11-30T12:13:37;5.44;76.37
20862;DHT22;10591;52.532;13.348;2022-11-30T12:16:33;5.68;76.04
20862;DHT22;10591;52.532;13.348;2022-11-30T12:19:23;5.54;75.89
20862;DHT22;10591;52.532;13.348;2022-11-30T12:22:36;5.44;76.16
20862;DHT22;10591;52.532;13.348;2022-11-30T12:25:30;5.43;76.84
20862;DHT22;10591;52.532;13.348;2022-11-30T12:28:24;5.41;76.96
20862;DHT22;10591;52.532;13.348;2022-11-30T12:31:14;5.26;77.02
20862;DHT22;10591;52.532;13.348;2022-11-30T12:39:48;5.27;76.70
20862;DHT22;10591;52.532;13.348;2022-11-30T12:45:24;5.30;77.45
20862;DHT22;10591;52.532;13.348;2022-11-30T12:56:29;5.12;78.31
20862;DHT22;10591;52.532;13.348;2022-11-30T12:59:20;5.13;78.32
20862;DHT22;10591;52.532;13.348;2022-11-30T13:04:34;5.21;78.23
20862;DHT22;10591;52.532;13.348;2022-11-30T13:09:59;5.14;78.46
20862;DHT22;10591;52.532;13.348;2022-11-30T13:12:35;5.09;78.60
20862;DHT22;10591;52.532;13.348;2022-11-30T13:15:17;5.11;79.08
20862;DHT22;10591;52.532;13.348;2022-11-30T13:17:49;4.98;79.10
20862;DHT22;10591;52.532;13.348;2022-11-30T13:20:24;4.78;79.78
20862;DHT22;10591;52.532;13.348;2022-11-30T13:23:20;4.88;79.82
20862;DHT22;10591;52.532;13.348;2022-11-30T13:28:54;4.78;79.80
20862;DHT22;10591;52.532;13.348;2022-11-30T13:34:31;4.82;80.07
20862;DHT22;10591;52.532;13.348;2022-11-30T13:36:43;4.85;79.98
20862;DHT22;10591;52.532;13.348;2022-11-30T13:39:20;4.78;79.84
20862;DHT22;10591;52.532;13.348;2022-11-30T13:44:39;4.62;79.55
20862;DHT22;10591;52.532;13.348;2022-11-30T13:47:18;4.64;79.45
20862;DHT22;10591;52.532;13.348;2022-11-30T13:49:55;4.52;79.60
20862;DHT22;10591;52.532;13.348;2022-11-30T13:58:26;4.23;79.76
20862;DHT22;10591;52.532;13.348;2022-11-30T14:01:24;4.16;79.88
20862;DHT22;10591;52.532;13.348;2022-11-30T14:06:53;3.86;80.95
20862;DHT22;10591;52.532;13.348;2022-11-30T14:12:44;3.78;81.43
20862;DHT22;10591;52.532;13.348;2022-11-30T14:26:44;3.30;82.24
20862;DHT22;10591;52.532;13.348;2022-11-30T14:29:18;3.40;82.47
20862;DHT22;10591;52.532;13.348;2022-11-30T14:32:11;3.34;82.64
20862;DHT22;10591;52.532;13.348;2022-11-30T14:34:48;3.22;82.72
20862;DHT22;10591;52.532;13.348;2022-11-30T14:37:22;3.00;83.09
20862;DHT22;10591;52.532;13.348;2022-11-30T14:40:00;2.68;83.67
20862;DHT22;10591;52.532;13.348;2022-11-30T14:42:30;2.48;83.96
20862;DHT22;10591;52.532;13.348;2022-11-30T14:45:03;2.58;84.43
20862;DHT22;10591;52.532;13.348;2022-11-30T14:47:37;2.46;84.69
20862;DHT22;10591;52.532;13.348;2022-11-30T14:50:19;2.44;84.78
20862;DHT22;10591;52.532;13.348;2022-11-30T14:55:55;2.29;85.15
20862;DHT22;10591;52.532;13.348;2022-11-30T14:59:36;2.31;85.11
20862;DHT22;10591;52.532;13.348;2022-11-30T15:01:27;2.22;85.02
20862;DHT22;10591;52.532;13.348;2022-11-30T15:04:09;2.06;85.31
20862;DHT22;10591;52.532;13.348;2022-11-30T15:06:39;1.96;85.73
20862;DHT22;10591;52.532;13.348;2022-11-30T15:09:15;1.80;86.04
20862;DHT22;10591;52.532;13.348;2022-11-30T15:11:50;1.78;86.08
20862;DHT22;10591;52.532;13.348;2022-11-30T15:14:21;1.87;86.11
20862;DHT22;10591;52.532;13.348;2022-11-30T15:16:54;1.89;85.83
20862;DHT22;10591;52.532;13.348;2022-11-30T15:19:31;1.85;85.75
20862;DHT22;10591;52.532;13.348;2022-11-30T15:22:11;2.02;85.61
20862;DHT22;10591;52.532;13.348;2022-11-30T15:24:41;2.11;85.41
20862;DHT22;10591;52.532;13.348;2022-11-30T15:27:18;2.17;85.45
20862;DHT22;10591;52.532;13.348;2022-11-30T15:29:58;2.22;85.08
20862;DHT22;10591;52.532;13.348;2022-11-30T15:32:26;2.06;85.09
20862;DHT22;10591;52.532;13.348;2022-11-30T15:34:58;1.96;85.47
20862;DHT22;10591;52.532;13.348;2022-11-30T15:37:37;1.86;85.53
20862;DHT22;10591;52.532;13.348;2022-11-30T15:40:08;1.66;86.03
20862;DHT22;10591;52.532;13.348;2022-11-30T15:42:39;1.62;86.11
20862;DHT22;10591;52.532;13.348;2022-11-30T15:45:14;1.54;86.55
20862;DHT22;10591;52.532;13.348;2022-11-30T15:47:45;1.52;86.72
20862;DHT22;10591;52.532;13.348;2022-11-30T15:53:03;1.57;86.90
20862;DHT22;10591;52.532;13.348;2022-11-30T15:55:46;1.80;86.50
20862;DHT22;10591;52.532;13.348;2022-11-30T15:58:28;1.80;86.18
20862;DHT22;10591;52.532;13.348;2022-11-30T16:01:02;1.70;86.15
20862;DHT22;10591;52.532;13.348;2022-11-30T16:06:35;1.82;86.05
20862;DHT22;10591;52.532;13.348;2022-11-30T16:09:23;1.90;85.83
20862;DHT22;10591;52.532;13.348;2022-11-30T16:11:55;1.57;85.90
20862;DHT22;10591;52.532;13.348;2022-11-30T16:14:27;1.56;86.42
20862;DHT22;10591;52.532;13.348;2022-11-30T16:16:58;1.54;86.48
20862;DHT22;10591;52.532;13.348;2022-11-30T16:19:30;1.69;86.44
20862;DHT22;10591;52.532;13.348;2022-11-30T16:22:03;1.80;86.13
20862;DHT22;10591;52.532;13.348;2022-11-30T16:24:34;1.74;86.07
20862;DHT22;10591;52.532;13.348;2022-11-30T16:27:18;1.70;86.07
20862;DHT22;10591;52.532;13.348;2022-11-30T16:29:51;1.70;86.15
20862;DHT22;10591;52.532;13.348;2022-11-30T16:32:25;1.64;86.33
20862;DHT22;10591;52.532;13.348;2022-11-30T16:34:59;1.60;86.37
20862;DHT22;10591;52.532;13.348;2022-11-30T16:37:30;1.54;86.68
20862;DHT22;10591;52.532;13.348;2022-11-30T16:40:05;1.60;86.79
20862;DHT22;10591;52.532;13.348;2022-11-30T16:42:36;1.62;86.74
20862;DHT22;10591;52.532;13.348;2022-11-30T16:45:23;1.58;86.91
20862;DHT22;10591;52.532;13.348;2022-11-30T16:47:59;1.56;86.97
20862;DHT22;10591;52.532;13.348;2022-11-30T16:50:32;1.68;86.98
20862;DHT22;10591;52.532;13.348;2022-11-30T16:53:05;1.66;86.84
20862;DHT22;10591;52.532;13.348;2022-11-30T16:55:37;1.70;86.85
20862;DHT22;10591;52.532;13.348;2022-11-30T16:58:09;1.64;86.79
20862;DHT22;10591;52.532;13.348;2022-11-30T17:00:42;1.70;86.80
20862;DHT22;10591;52.532;13.348;2022-11-30T17:03:24;1.68;86.85
20862;DHT22;10591;52.532;13.348;2022-11-30T17:05:54;1.67;86.85
20862;DHT22;10591;52.532;13.348;2022-11-30T17:08:26;1.67;86.99
20862;DHT22;10591;52.532;13.348;2022-11-30T17:10:59;1.83;86.88
20862;DHT22;10591;52.532;13.348;2022-11-30T17:13:30;1.82;86.71
20862;DHT22;10591;52.532;13.348;2022-11-30T17:16:04;1.76;86.73
20862;DHT22;10591;52.532;13.348;2022-11-30T17:18:35;1.80;86.57
20862;DHT22;10591;52.532;13.348;2022-11-30T17:21:08;1.88;86.54
20862;DHT22;10591;52.532;13.348;2022-11-30T17:23:38;1.90;86.45
20862;DHT22;10591;52.532;13.348;2022-11-30T17:26:12;2.00;86.27
20862;DHT22;10591;52.532;13.348;2022-11-30T17:28:43;2.04;85.93
20862;DHT22;10591;52.532;13.348;2022-11-30T17:31:18;1.90;86.07
20862;DHT22;10591;52.532;13.348;2022-11-30T17:33:49;1.80;86.22
20862;DHT22;10591;52.532;13.348;2022-11-30T17:36:23;1.94;86.21
20862;DHT22;10591;52.532;13.348;2022-11-30T17:38:56;1.89;86.29
20862;DHT22;10591;52.532;13.348;2022-11-30T17:41:28;1.82;86.25
20862;DHT22;10591;52.532;13.348;2022-11-30T17:44:00;1.89;86.28
20862;DHT22;10591;52.532;13.348;2022-11-30T17:46:32;1.78;86.41
20862;DHT22;10591;52.532;13.348;2022-11-30T17:49:03;1.72;86.70
20862;DHT22;10591;52.532;13.348;2022-11-30T17:51:34;1.74;86.75
20862;DHT22;10591;52.532;13.348;2022-11-30T17:54:07;1.82;86.66
20862;DHT22;10591;52.532;13.348;2022-11-30T17:56:38;1.87;86.59
20862;DHT22;10591;52.532;13.348;2022-11-30T17:59:09;1.83;86.51
20862;DHT22;10591;52.532;13.348;2022-11-30T18:01:39;1.84;86.49
20862;DHT22;10591;52.532;13.348;2022-11-30T18:04:11;1.82;86.58